地図

経路データ

SID SEASON NUMBER BASIN SUBBASIN NAME ISO_TIME NATURE LAT LON WMO_WIND WMO_PRES WMO_AGENCY TRACK_TYPE DIST2LAND LANDFALL IFLAG USA_AGENCY USA_ATCF_ID USA_LAT USA_LON USA_RECORD USA_STATUS USA_WIND USA_PRES USA_SSHS USA_R34_NE USA_R34_SE USA_R34_SW USA_R34_NW USA_R50_NE USA_R50_SE USA_R50_SW USA_R50_NW USA_R64_NE USA_R64_SE USA_R64_SW USA_R64_NW USA_POCI USA_ROCI USA_RMW USA_EYE TOKYO_LAT TOKYO_LON TOKYO_GRADE TOKYO_WIND TOKYO_PRES TOKYO_R50_DIR TOKYO_R50_LONG TOKYO_R50_SHORT TOKYO_R30_DIR TOKYO_R30_LONG TOKYO_R30_SHORT TOKYO_LAND CMA_LAT CMA_LON CMA_CAT CMA_WIND CMA_PRES HKO_LAT HKO_LON HKO_CAT HKO_WIND HKO_PRES NEWDELHI_LAT NEWDELHI_LON NEWDELHI_GRADE NEWDELHI_WIND NEWDELHI_PRES NEWDELHI_CI NEWDELHI_DP NEWDELHI_POCI REUNION_LAT REUNION_LON REUNION_TYPE REUNION_WIND REUNION_PRES REUNION_TNUM REUNION_CI REUNION_RMW REUNION_R34_NE REUNION_R34_SE REUNION_R34_SW REUNION_R34_NW REUNION_R50_NE REUNION_R50_SE REUNION_R50_SW REUNION_R50_NW REUNION_R64_NE REUNION_R64_SE REUNION_R64_SW REUNION_R64_NW BOM_LAT BOM_LON BOM_TYPE BOM_WIND BOM_PRES BOM_TNUM BOM_CI BOM_RMW BOM_R34_NE BOM_R34_SE BOM_R34_SW BOM_R34_NW BOM_R50_NE BOM_R50_SE BOM_R50_SW BOM_R50_NW BOM_R64_NE BOM_R64_SE BOM_R64_SW BOM_R64_NW BOM_ROCI BOM_POCI BOM_EYE BOM_POS_METHOD BOM_PRES_METHOD NADI_LAT NADI_LON NADI_CAT NADI_WIND NADI_PRES WELLINGTON_LAT WELLINGTON_LON WELLINGTON_WIND WELLINGTON_PRES DS824_LAT DS824_LON DS824_STAGE DS824_WIND DS824_PRES TD9636_LAT TD9636_LON TD9636_STAGE TD9636_WIND TD9636_PRES TD9635_LAT TD9635_LON TD9635_WIND TD9635_PRES TD9635_ROCI NEUMANN_LAT NEUMANN_LON NEUMANN_CLASS NEUMANN_WIND NEUMANN_PRES MLC_LAT MLC_LON MLC_CLASS MLC_WIND MLC_PRES USA_GUST BOM_GUST BOM_GUST_PER REUNION_GUST REUNION_GUST_PER USA_SEAHGT USA_SEARAD_NE USA_SEARAD_SE USA_SEARAD_SW USA_SEARAD_NW STORM_SPEED STORM_DIR
1902205N14130 1902 25 WP MM NOT_NAMED 1902-07-23 16:00:00 NR 13.5000 130.300 main 540 463 __________O___ -1 13.5000 130.300 7 28 295
1902205N14130 1902 25 WP MM NOT_NAMED 1902-07-23 18:00:00 NR 13.9004 129.416 main 463 381 __________P___ -1 13.9004 129.416 7 28 295
1902205N14130 1902 25 WP MM NOT_NAMED 1902-07-23 21:00:00 NR 14.4665 128.143 main 381 305 __________P___ -1 14.4665 128.143 7 26 294
1902205N14130 1902 25 WP MM NOT_NAMED 1902-07-24 00:00:00 NR 14.9517 127.015 main 305 240 __________P___ -1 14.9517 127.015 7 21 294
1902205N14130 1902 25 WP MM NOT_NAMED 1902-07-24 03:00:00 NR 15.3137 126.127 main 240 232 __________P___ -1 15.3137 126.127 7 18 293
1902205N14130 1902 25 WP MM NOT_NAMED 1902-07-24 04:00:00 NR 15.4000 125.900 main 232 218 __________O___ -1 15.4000 125.900 7 12 290
1902205N14130 1902 25 WP MM NOT_NAMED 1902-07-24 06:00:00 NR 15.5167 125.562 main 218 208 __________P___ -1 15.5167 125.562 7 7 287
1902205N14130 1902 25 WP MM NOT_NAMED 1902-07-24 09:00:00 NR 15.5809 125.284 main 208 203 __________P___ -1 15.5809 125.284 7 4 277
1902205N14130 1902 25 WP MM NOT_NAMED 1902-07-24 12:00:00 NR 15.5614 125.177 main 203 188 __________P___ -1 15.5614 125.177 7 2 246
1902205N14130 1902 25 WP MM NOT_NAMED 1902-07-24 15:00:00 NR 15.5131 125.125 main 188 188 __________P___ -1 15.5131 125.125 7 1 231
1902205N14130 1902 25 WP MM NOT_NAMED 1902-07-24 16:00:00 NR 15.5000 125.100 main 188 184 __________O___ -1 15.5000 125.100 7 3 268
1902205N14130 1902 25 WP MM NOT_NAMED 1902-07-24 18:00:00 NR 15.5085 124.979 main 184 176 __________P___ -1 15.5085 124.979 7 4 274
1902205N14130 1902 25 WP MM NOT_NAMED 1902-07-24 21:00:00 NR 15.5213 124.792 main 176 170 __________P___ -1 15.5213 124.792 7 4 275
1902205N14130 1902 25 WP MM NOT_NAMED 1902-07-25 00:00:00 NR 15.5424 124.576 main 170 169 __________P___ -1 15.5424 124.576 7 5 277
1902205N14130 1902 25 WP MM NOT_NAMED 1902-07-25 03:00:00 NR 15.5814 124.306 main 179 179 __________P___ -1 15.5814 124.306 7 6 279
1902205N14130 1902 25 WP MM NOT_NAMED 1902-07-25 04:00:00 NR 15.6000 124.200 main 179 179 __________O___ -1 15.6000 124.200 7 7 281
1902205N14130 1902 25 WP MM NOT_NAMED 1902-07-25 06:00:00 NR 15.6470 123.954 main 179 149 __________P___ -1 15.6470 123.954 7 8 282
1902205N14130 1902 25 WP MM NOT_NAMED 1902-07-25 09:00:00 NR 15.7364 123.528 main 149 106 __________P___ -1 15.7364 123.528 7 9 283
1902205N14130 1902 25 WP MM NOT_NAMED 1902-07-25 12:00:00 NR 15.8426 123.057 main 106 48 __________P___ -1 15.8426 123.057 7 10 284
1902205N14130 1902 25 WP MM NOT_NAMED 1902-07-25 15:00:00 NR 15.9596 122.564 main 48 30 __________P___ -1 15.9596 122.564 7 10 284
1902205N14130 1902 25 WP MM NOT_NAMED 1902-07-25 16:00:00 NR 16.0000 122.400 main 30 0 __________O___ -1 16.0000 122.400 3 9 283
1902205N14130 1902 25 WP MM NOT_NAMED 1902-07-25 18:00:00 NR 16.0670 122.089 main 0 0 __________P___ -1 16.0670 122.089 3 9 283
1902205N14130 1902 25 WP MM NOT_NAMED 1902-07-25 21:00:00 NR 16.1736 121.616 main 0 0 __________P___ -1 16.1736 121.616 3 9 284
1902205N14130 1902 25 WP MM NOT_NAMED 1902-07-26 00:00:00 NR 16.2960 121.138 main 0 0 __________P___ -1 16.2960 121.138 3 10 286
1902205N14130 1902 25 WP MM NOT_NAMED 1902-07-26 03:00:00 NR 16.4436 120.659 main 0 0 __________P___ -1 16.4436 120.659 3 10 288
1902205N14130 1902 25 WP MM NOT_NAMED 1902-07-26 04:00:00 NR 16.5000 120.500 main 0 0 __________O___ -1 16.5000 120.500 4 10 291
1902205N14130 1902 25 WP MM NOT_NAMED 1902-07-26 06:00:00 NR 16.6244 120.176 main 10 21 __________P___ -1 16.6244 120.176 4 10 293
1902205N14130 1902 25 WP MM NOT_NAMED 1902-07-26 09:00:00 NR 16.8364 119.689 main 56 56 __________P___ -1 16.8364 119.689 4 10 296
1902205N14130 1902 25 WP MM NOT_NAMED 1902-07-26 12:00:00 NR 17.0703 119.210 main 110 110 __________P___ -1 17.0703 119.210 4 10 298
1902205N14130 1902 25 WP MM NOT_NAMED 1902-07-26 15:00:00 NR 17.3167 118.748 main 161 161 __________P___ -1 17.3167 118.748 4 10 300
1902205N14130 1902 25 WP MM NOT_NAMED 1902-07-26 16:00:00 NR 17.4000 118.600 main 177 177 __________O___ -1 17.4000 118.600 4 10 299
1902205N14130 1902 25 WP MM NOT_NAMED 1902-07-26 18:00:00 NR 17.5528 118.308 main 212 212 __________P___ -1 17.5528 118.308 4 9 300
1902205N14130 1902 25 WP MM NOT_NAMED 1902-07-26 21:00:00 NR 17.7885 117.889 main 255 255 __________P___ -1 17.7885 117.889 4 9 302
1902205N14130 1902 25 WP MM NOT_NAMED 1902-07-27 00:00:00 NR 18.0372 117.493 main 299 301 __________P___ -1 18.0372 117.493 4 9 305
1902205N14130 1902 25 WP MM NOT_NAMED 1902-07-27 03:00:00 NR 18.3053 117.119 main 347 347 __________P___ -1 18.3053 117.119 4 9 308
1902205N14130 1902 25 WP MM NOT_NAMED 1902-07-27 04:00:00 NR 18.4000 117.000 main 360 360 __________O___ -1 18.4000 117.000 4 9 308
1902205N14130 1902 25 WP MM NOT_NAMED 1902-07-27 06:00:00 NR 18.5890 116.743 main 396 396 __________P___ -1 18.5890 116.743 4 9 310
1902205N14130 1902 25 WP MM NOT_NAMED 1902-07-27 09:00:00 NR 18.8913 116.375 main 429 386 __________P___ -1 18.8913 116.375 4 9 314
1902205N14130 1902 25 WP MM NOT_NAMED 1902-07-27 12:00:00 NR 19.2189 116.046 main 386 337 __________P___ -1 19.2189 116.046 4 9 320
1902205N14130 1902 25 WP MM NOT_NAMED 1902-07-27 15:00:00 NR 19.5746 115.775 main 337 323 __________P___ -1 19.5746 115.775 4 9 326
1902205N14130 1902 25 WP MM NOT_NAMED 1902-07-27 16:00:00 NR 19.7000 115.700 main 323 288 __________O___ -1 19.7000 115.700 4 8 336
1902205N14130 1902 25 WP MM NOT_NAMED 1902-07-27 18:00:00 NR 19.9549 115.592 main 288 242 __________P___ -1 19.9549 115.592 4 8 343
1902205N14130 1902 25 WP MM NOT_NAMED 1902-07-27 21:00:00 NR 20.3627 115.487 main 242 196 __________P___ -1 20.3627 115.487 4 9 349
1902205N14130 1902 25 WP MM NOT_NAMED 1902-07-28 00:00:00 NR 20.7954 115.415 main 196 151 __________P___ -1 20.7954 115.415 4 9 351
1902205N14130 1902 25 WP MM NOT_NAMED 1902-07-28 03:00:00 NR 21.2466 115.335 main 151 129 __________P___ -1 21.2466 115.335 4 9 350
1902205N14130 1902 25 WP MM NOT_NAMED 1902-07-28 04:00:00 NR 21.4000 115.300 main 129 94 __________O___ -1 21.4000 115.300 4 10 344
1902205N14130 1902 25 WP MM NOT_NAMED 1902-07-28 06:00:00 NR 21.7078 115.197 main 94 35 __________P___ -1 21.7078 115.197 4 10 341
1902205N14130 1902 25 WP MM NOT_NAMED 1902-07-28 09:00:00 NR 22.1823 115.018 main 35 0 __________P___ -1 22.1823 115.018 4 10 340
1902205N14130 1902 25 WP MM NOT_NAMED 1902-07-28 12:00:00 NR 22.6636 114.812 main 0 0 __________P___ -1 22.6636 114.812 4 10 337
1902205N14130 1902 25 WP MM NOT_NAMED 1902-07-28 15:00:00 NR 23.1425 114.581 main 0 0 __________P___ -1 23.1425 114.581 4 11 336
1902205N14130 1902 25 WP MM NOT_NAMED 1902-07-28 16:00:00 NR 23.3000 114.500 main 0 0 __________O___ -1 23.3000 114.500 7 10 334
1902205N14130 1902 25 WP MM NOT_NAMED 1902-07-28 18:00:00 NR 23.6103 114.331 main 0 0 __________P___ -1 23.6103 114.331 7 10 332
1902205N14130 1902 25 WP MM NOT_NAMED 1902-07-28 21:00:00 NR 24.0658 114.064 main 0 0 __________P___ -1 24.0658 114.064 7 10 331
1902205N14130 1902 25 WP MM NOT_NAMED 1902-07-29 00:00:00 NR 24.5123 113.784 main 0 0 __________P___ -1 24.5123 113.784 7 10 330
1902205N14130 1902 25 WP MM NOT_NAMED 1902-07-29 03:00:00 NR 24.9535 113.497 main 0 0 __________P___ -1 24.9535 113.497 7 10 329
1902205N14130 1902 25 WP MM NOT_NAMED 1902-07-29 04:00:00 NR 25.1000 113.400 main 0 __________O___ -1 25.1000 113.400 7 10 328

デジタル台風データ・検索

IBTrACS Databaseについて

本データベースは、米国NOAAが公開する1842年以降の世界の熱帯低気圧のベストトラックデータアーカイブInternational Best Track Archive for Climate Stewardship (IBTrACS)を、ウェブで閲覧しやすい形式に変換したものです。

最終更新日:2021-10-08